Time;durP1;ratioP1;P1;durP2;ratioP2;P2;SDS_P1;SDS_P2;PMS_P1;PMS_P2;Temp;Humidity;BMP_temperature;BMP_pressure;BME280_temperature;BME280_humidity;BME280_pressure;Samples;Min_cycle;Max_cycle;Signal;HPM_P1;HPM_P2
2021/09/02 00:01:41;;;;;;;0.00;0.00;;;;;;;;;;5028566;28;20220;-75
2021/09/02 00:04:09;;;;;;;0.00;0.00;;;;;;;;;;5029751;28;20207;-74
2021/09/02 00:06:36;;;;;;;0.00;0.00;;;;;;;;;;5031583;28;20203;-75
2021/09/02 00:09:03;;;;;;;0.00;0.00;;;;;;;;;;5030742;28;20677;-76
2021/09/02 00:11:31;;;;;;;0.00;0.00;;;;;;;;;;5031293;28;20203;-74
2021/09/02 00:13:59;;;;;;;0.00;0.00;;;;;;;;;;5032890;28;20207;-73
2021/09/02 00:16:27;;;;;;;0.00;0.00;;;;;;;;;;5029362;28;20212;-73
2021/09/02 00:18:54;;;;;;;0.00;0.00;;;;;;;;;;5030127;28;20762;-73
2021/09/02 00:21:21;;;;;;;0.10;0.10;;;;;;;;;;5032452;28;20199;-74
2021/09/02 00:23:49;;;;;;;0.00;0.00;;;;;;;;;;5029528;28;20606;-73
2021/09/02 00:26:16;;;;;;;0.17;0.17;;;;;;;;;;5029472;28;20214;-74
2021/09/02 00:28:44;;;;;;;0.00;0.00;;;;;;;;;;5030185;28;20211;-74
2021/09/02 00:31:13;;;;;;;0.00;0.00;;;;;;;;;;5030445;28;20677;-73
2021/09/02 00:33:40;;;;;;;0.00;0.00;;;;;;;;;;5029866;28;20218;-73
2021/09/02 00:36:08;;;;;;;0.00;0.00;;;;;;;;;;5031996;28;20226;-74
2021/09/02 00:38:35;;;;;;;0.00;0.00;;;;;;;;;;5030743;28;20707;-73
2021/09/02 00:41:03;;;;;;;0.00;0.00;;;;;;;;;;5028592;28;20221;-73
2021/09/02 00:43:37;;;;;;;0.00;0.00;;;;;;;;;;5031707;28;20200;-73
2021/09/02 00:46:05;;;;;;;0.00;0.00;;;;;;;;;;5030847;28;22901;-74
2021/09/02 00:48:34;;;;;;;0.00;0.00;;;;;;;;;;5033297;28;20798;-73
2021/09/02 00:51:02;;;;;;;0.00;0.00;;;;;;;;;;5032345;28;20211;-75
2021/09/02 00:53:29;;;;;;;0.00;0.00;;;;;;;;;;5031489;28;20211;-76
2021/09/02 00:55:56;;;;;;;0.00;0.00;;;;;;;;;;5030940;28;20206;-74
2021/09/02 00:58:24;;;;;;;0.00;0.00;;;;;;;;;;5029492;28;20766;-75
2021/09/02 01:00:51;;;;;;;0.00;0.00;;;;;;;;;;5030817;28;20207;-74
2021/09/02 01:03:19;;;;;;;0.00;0.00;;;;;;;;;;5030587;28;20208;-73
2021/09/02 01:05:48;;;;;;;0.00;0.00;;;;;;;;;;5031066;28;20302;-74
2021/09/02 01:08:16;;;;;;;0.00;0.00;;;;;;;;;;5030170;28;20207;-73
2021/09/02 01:10:49;;;;;;;0.00;0.00;;;;;;;;;;5029438;28;20207;-74
2021/09/02 01:13:16;;;;;;;0.00;0.00;;;;;;;;;;5031595;28;20771;-73
2021/09/02 01:15:43;;;;;;;0.00;0.00;;;;;;;;;;5031367;28;20689;-73
2021/09/02 01:18:12;;;;;;;0.00;0.00;;;;;;;;;;5029719;28;20214;-73
2021/09/02 01:20:39;;;;;;;0.00;0.00;;;;;;;;;;5031644;28;20328;-76
2021/09/02 01:23:09;;;;;;;0.00;0.00;;;;;;;;;;5032780;28;20253;-73
2021/09/02 01:25:41;;;;;;;0.00;0.00;;;;;;;;;;5030005;28;20207;-73
2021/09/02 01:28:09;;;;;;;0.00;0.00;;;;;;;;;;5030144;28;20673;-75
2021/09/02 01:30:37;;;;;;;0.00;0.00;;;;;;;;;;5031780;28;20795;-73
2021/09/02 01:33:05;;;;;;;0.00;0.00;;;;;;;;;;5029904;28;20207;-75
2021/09/02 01:35:33;;;;;;;0.00;0.00;;;;;;;;;;5031183;28;20203;-74
2021/09/02 01:38:01;;;;;;;0.00;0.00;;;;;;;;;;5031917;28;20577;-74
2021/09/02 01:40:30;;;;;;;0.00;0.00;;;;;;;;;;5029140;28;20227;-74
2021/09/02 01:42:59;;;;;;;0.00;0.00;;;;;;;;;;5030214;28;20207;-73
2021/09/02 01:45:27;;;;;;;0.00;0.00;;;;;;;;;;5035662;28;20789;-75
2021/09/02 01:47:57;;;;;;;0.00;0.00;;;;;;;;;;5034382;28;20783;-75
2021/09/02 01:50:25;;;;;;;0.00;0.00;;;;;;;;;;5035437;28;20211;-75
2021/09/02 01:52:53;;;;;;;0.00;0.00;;;;;;;;;;5036541;28;20199;-74
2021/09/02 01:55:22;;;;;;;0.00;0.00;;;;;;;;;;5035368;28;20195;-76
2021/09/02 01:57:50;;;;;;;0.00;0.00;;;;;;;;;;5034670;28;20237;-75
2021/09/02 02:00:20;;;;;;;0.00;0.00;;;;;;;;;;5033387;28;20231;-74
2021/09/02 02:02:47;;;;;;;0.00;0.00;;;;;;;;;;5033390;28;20191;-75
2021/09/02 02:05:17;;;;;;;0.00;0.00;;;;;;;;;;5032557;28;20215;-75
2021/09/02 02:07:44;;;;;;;0.00;0.00;;;;;;;;;;5033779;28;20219;-75
2021/09/02 02:10:13;;;;;;;0.00;0.00;;;;;;;;;;5035163;28;20875;-75
2021/09/02 02:12:41;;;;;;;0.00;0.00;;;;;;;;;;5044268;28;20207;-75
2021/09/02 02:15:09;;;;;;;0.00;0.00;;;;;;;;;;5040923;28;20226;-76
2021/09/02 02:17:39;;;;;;;0.00;0.00;;;;;;;;;;5040790;28;20245;-73
2021/09/02 02:20:07;;;;;;;0.00;0.00;;;;;;;;;;5042772;28;20227;-75
2021/09/02 02:22:34;;;;;;;0.00;0.00;;;;;;;;;;5040102;28;20591;-75
2021/09/02 02:25:02;;;;;;;0.00;0.00;;;;;;;;;;5039984;28;20223;-73
2021/09/02 02:27:29;;;;;;;0.00;0.00;;;;;;;;;;5040580;28;20199;-73
2021/09/02 02:29:56;;;;;;;0.00;0.00;;;;;;;;;;5042431;28;20566;-74
2021/09/02 02:32:24;;;;;;;0.00;0.00;;;;;;;;;;5041652;28;20206;-73
2021/09/02 02:34:53;;;;;;;0.00;0.00;;;;;;;;;;5041563;28;20287;-72
2021/09/02 02:37:20;;;;;;;0.00;0.00;;;;;;;;;;5037387;28;20660;-74
2021/09/02 02:39:47;;;;;;;0.00;0.00;;;;;;;;;;5032810;28;21208;-77
2021/09/02 02:42:15;;;;;;;0.10;0.10;;;;;;;;;;5032862;28;20208;-75
2021/09/02 02:44:42;;;;;;;0.00;0.00;;;;;;;;;;5033976;28;20195;-74
2021/09/02 02:47:10;;;;;;;0.00;0.00;;;;;;;;;;5033450;28;20974;-75
2021/09/02 02:49:37;;;;;;;0.00;0.00;;;;;;;;;;5031642;28;20590;-75
2021/09/02 02:52:07;;;;;;;0.00;0.00;;;;;;;;;;5030263;28;20673;-75
2021/09/02 02:54:34;;;;;;;0.00;0.00;;;;;;;;;;5031265;28;20203;-75
2021/09/02 02:57:02;;;;;;;0.00;0.00;;;;;;;;;;5031440;28;20231;-75
2021/09/02 02:59:29;;;;;;;0.00;0.00;;;;;;;;;;5032257;28;20833;-74
2021/09/02 03:01:57;;;;;;;0.00;0.00;;;;;;;;;;5030584;28;20196;-75
2021/09/02 03:04:24;;;;;;;0.27;0.13;;;;;;;;;;5031176;28;20230;-74
2021/09/02 03:06:51;;;;;;;0.97;0.20;;;;;;;;;;5030782;28;20204;-74
2021/09/02 03:09:20;;;;;;;0.00;0.00;;;;;;;;;;5031470;28;21812;-77
2021/09/02 03:11:47;;;;;;;0.00;0.00;;;;;;;;;;5032728;28;20219;-73
2021/09/02 03:14:15;;;;;;;0.00;0.00;;;;;;;;;;5033816;28;20212;-74
2021/09/02 03:16:42;;;;;;;0.00;0.00;;;;;;;;;;5031347;28;20261;-74
2021/09/02 03:19:10;;;;;;;0.20;0.20;;;;;;;;;;5030902;28;20231;-75
2021/09/02 03:21:37;;;;;;;0.00;0.00;;;;;;;;;;5031675;28;20278;-75
2021/09/02 03:24:04;;;;;;;0.00;0.00;;;;;;;;;;5030279;28;20223;-73
2021/09/02 03:26:33;;;;;;;0.00;0.00;;;;;;;;;;5032804;28;20207;-75
2021/09/02 03:29:01;;;;;;;0.00;0.00;;;;;;;;;;5033165;28;22001;-73
2021/09/02 03:31:28;;;;;;;0.00;0.00;;;;;;;;;;5031934;28;20219;-74
2021/09/02 03:33:56;;;;;;;0.00;0.00;;;;;;;;;;5031035;28;20204;-75
2021/09/02 03:36:24;;;;;;;0.00;0.00;;;;;;;;;;5029604;28;20211;-75
2021/09/02 03:38:51;;;;;;;0.00;0.00;;;;;;;;;;5029630;28;21640;-75
2021/09/02 03:41:19;;;;;;;0.00;0.00;;;;;;;;;;5028541;28;20673;-75
2021/09/02 03:43:47;;;;;;;0.00;0.00;;;;;;;;;;5033350;28;20214;-73
2021/09/02 03:46:15;;;;;;;0.00;0.00;;;;;;;;;;5031212;28;20216;-76
2021/09/02 03:48:42;;;;;;;0.00;0.00;;;;;;;;;;5029037;28;20203;-77
2021/09/02 03:51:09;;;;;;;0.00;0.00;;;;;;;;;;5031311;28;20204;-76
2021/09/02 03:53:37;;;;;;;0.00;0.00;;;;;;;;;;5029043;28;20197;-75
2021/09/02 03:56:04;;;;;;;0.00;0.00;;;;;;;;;;5030461;28;20204;-74
2021/09/02 03:58:32;;;;;;;0.00;0.00;;;;;;;;;;5031379;28;20245;-74
2021/09/02 04:01:00;;;;;;;0.00;0.00;;;;;;;;;;5028874;28;20236;-74
2021/09/02 04:03:28;;;;;;;0.00;0.00;;;;;;;;;;5031149;28;20211;-76
2021/09/02 04:05:55;;;;;;;0.00;0.00;;;;;;;;;;5030321;28;20204;-74
2021/09/02 04:08:23;;;;;;;0.00;0.00;;;;;;;;;;5036038;28;20203;-73
2021/09/02 04:10:50;;;;;;;0.00;0.00;;;;;;;;;;5031541;28;20208;-73
2021/09/02 04:13:18;;;;;;;0.00;0.00;;;;;;;;;;5036553;28;20204;-72
2021/09/02 04:15:45;;;;;;;0.00;0.00;;;;;;;;;;5039650;28;20230;-74
2021/09/02 04:18:15;;;;;;;0.00;0.00;;;;;;;;;;5040484;28;20213;-73
2021/09/02 04:20:42;;;;;;;0.00;0.00;;;;;;;;;;5038168;28;20231;-73
2021/09/02 04:23:10;;;;;;;0.00;0.00;;;;;;;;;;5039994;28;20211;-73
2021/09/02 04:25:37;;;;;;;0.00;0.00;;;;;;;;;;5038770;28;20192;-73
2021/09/02 04:28:05;;;;;;;0.00;0.00;;;;;;;;;;5039529;28;20207;-73
2021/09/02 04:30:33;;;;;;;0.00;0.00;;;;;;;;;;5039334;28;21804;-73
2021/09/02 04:33:01;;;;;;;0.00;0.00;;;;;;;;;;5041344;28;20234;-73
2021/09/02 04:35:30;;;;;;;0.00;0.00;;;;;;;;;;5040202;28;20240;-73
2021/09/02 04:37:58;;;;;;;0.00;0.00;;;;;;;;;;5038779;28;20254;-73
2021/09/02 04:40:25;;;;;;;0.00;0.00;;;;;;;;;;5037923;28;20730;-74
2021/09/02 04:42:53;;;;;;;0.00;0.00;;;;;;;;;;5041478;28;20192;-73
2021/09/02 04:45:20;;;;;;;0.00;0.00;;;;;;;;;;5039196;28;20688;-73
2021/09/02 04:47:50;;;;;;;0.00;0.00;;;;;;;;;;5041312;28;20294;-75
2021/09/02 04:50:18;;;;;;;0.00;0.00;;;;;;;;;;5039660;28;20672;-73
2021/09/02 04:52:46;;;;;;;0.00;0.00;;;;;;;;;;5039269;28;20204;-75
2021/09/02 04:55:14;;;;;;;0.00;0.00;;;;;;;;;;5037306;28;20207;-75
2021/09/02 04:57:42;;;;;;;0.00;0.00;;;;;;;;;;5038410;28;20204;-73
2021/09/02 05:00:10;;;;;;;0.00;0.00;;;;;;;;;;5038713;28;20996;-74
2021/09/02 05:02:37;;;;;;;0.00;0.00;;;;;;;;;;5030422;28;20243;-74
2021/09/02 05:05:05;;;;;;;0.00;0.00;;;;;;;;;;5031358;28;20695;-74
2021/09/02 05:07:34;;;;;;;0.00;0.00;;;;;;;;;;5039647;28;20200;-73
2021/09/02 05:10:06;;;;;;;0.00;0.00;;;;;;;;;;5036885;28;20206;-74
2021/09/02 05:12:34;;;;;;;0.00;0.00;;;;;;;;;;5039172;28;20607;-73
2021/09/02 05:15:01;;;;;;;0.00;0.00;;;;;;;;;;5038500;28;20199;-76
2021/09/02 05:17:28;;;;;;;0.00;0.00;;;;;;;;;;5037847;28;20203;-73
2021/09/02 05:19:56;;;;;;;0.00;0.00;;;;;;;;;;5041611;28;20223;-76
2021/09/02 05:22:23;;;;;;;0.00;0.00;;;;;;;;;;5043844;28;20207;-73
2021/09/02 05:24:50;;;;;;;0.00;0.00;;;;;;;;;;5032632;28;20240;-75
2021/09/02 05:27:20;;;;;;;0.00;0.00;;;;;;;;;;5024657;28;20239;-74
2021/09/02 05:29:47;;;;;;;0.00;0.00;;;;;;;;;;5022753;28;21495;-76
2021/09/02 05:32:15;;;;;;;0.00;0.00;;;;;;;;;;5026393;28;20204;-74
2021/09/02 05:34:42;;;;;;;0.00;0.00;;;;;;;;;;5028717;28;20664;-74
2021/09/02 05:37:09;;;;;;;0.00;0.00;;;;;;;;;;5023798;28;20204;-74
2021/09/02 05:39:37;;;;;;;0.00;0.00;;;;;;;;;;5027455;28;20215;-75
2021/09/02 05:42:05;;;;;;;0.00;0.00;;;;;;;;;;5027420;28;20204;-74
2021/09/02 05:44:33;;;;;;;0.00;0.00;;;;;;;;;;5025451;28;20205;-74
2021/09/02 05:47:01;;;;;;;0.00;0.00;;;;;;;;;;5026349;28;20662;-74
2021/09/02 05:49:28;;;;;;;0.47;0.47;;;;;;;;;;5021170;28;20865;-75
2021/09/02 05:51:56;;;;;;;0.00;0.00;;;;;;;;;;5018754;28;20216;-74
2021/09/02 05:54:23;;;;;;;0.00;0.00;;;;;;;;;;5019612;28;20255;-76
2021/09/02 05:56:50;;;;;;;0.00;0.00;;;;;;;;;;5023108;28;20215;-75
2021/09/02 05:59:18;;;;;;;0.00;0.00;;;;;;;;;;5021936;28;20739;-74
2021/09/02 06:01:47;;;;;;;0.00;0.00;;;;;;;;;;5021139;28;20350;-75
2021/09/02 06:04:14;;;;;;;0.00;0.00;;;;;;;;;;5021704;28;20686;-76
2021/09/02 06:06:42;;;;;;;0.00;0.00;;;;;;;;;;5020738;28;20205;-75
2021/09/02 06:09:09;;;;;;;0.00;0.00;;;;;;;;;;5019933;28;20572;-74
2021/09/02 06:11:37;;;;;;;0.00;0.00;;;;;;;;;;5024185;28;20219;-75
2021/09/02 06:14:04;;;;;;;0.10;0.10;;;;;;;;;;5024982;28;20215;-75
2021/09/02 06:16:31;;;;;;;0.00;0.00;;;;;;;;;;5025505;28;20202;-74
2021/09/02 06:19:00;;;;;;;0.00;0.00;;;;;;;;;;5020801;28;20203;-74
2021/09/02 06:21:28;;;;;;;0.00;0.00;;;;;;;;;;5025645;28;20228;-77
2021/09/02 06:23:55;;;;;;;0.00;0.00;;;;;;;;;;5027107;28;20212;-75
2021/09/02 06:26:23;;;;;;;0.00;0.00;;;;;;;;;;5026502;28;20209;-75
2021/09/02 06:28:50;;;;;;;0.00;0.00;;;;;;;;;;5024938;28;20212;-74
2021/09/02 06:31:17;;;;;;;0.00;0.00;;;;;;;;;;5027304;28;20577;-74
2021/09/02 06:33:45;;;;;;;0.00;0.00;;;;;;;;;;5025027;28;20208;-74
2021/09/02 06:36:13;;;;;;;0.00;0.00;;;;;;;;;;5024919;28;20213;-75
2021/09/02 06:38:41;;;;;;;0.00;0.00;;;;;;;;;;5026363;28;20201;-78
2021/09/02 06:41:08;;;;;;;0.00;0.00;;;;;;;;;;5027337;28;20240;-74
2021/09/02 06:43:36;;;;;;;0.00;0.00;;;;;;;;;;5020380;28;20196;-74
2021/09/02 06:46:03;;;;;;;0.00;0.00;;;;;;;;;;5029018;28;20231;-75
2021/09/02 06:48:30;;;;;;;0.00;0.00;;;;;;;;;;5020700;28;20201;-75
2021/09/02 06:50:58;;;;;;;0.00;0.00;;;;;;;;;;5020107;28;20212;-75
2021/09/02 06:53:26;;;;;;;0.00;0.00;;;;;;;;;;5017657;28;20213;-76
2021/09/02 06:55:54;;;;;;;0.40;0.10;;;;;;;;;;5016966;28;20201;-74
2021/09/02 06:58:21;;;;;;;0.00;0.00;;;;;;;;;;5012072;28;20236;-74
2021/09/02 07:00:49;;;;;;;0.00;0.00;;;;;;;;;;5016027;28;20235;-78
2021/09/02 07:03:16;;;;;;;0.00;0.00;;;;;;;;;;5011922;28;20200;-77
2021/09/02 07:05:43;;;;;;;0.00;0.00;;;;;;;;;;5011914;28;20594;-74
2021/09/02 07:08:12;;;;;;;0.00;0.00;;;;;;;;;;5008522;28;20247;-75
2021/09/02 07:10:41;;;;;;;0.00;0.00;;;;;;;;;;5013635;28;20744;-73
2021/09/02 07:13:09;;;;;;;0.00;0.00;;;;;;;;;;5011497;28;20540;-72
2021/09/02 07:15:36;;;;;;;0.00;0.00;;;;;;;;;;5012877;28;20216;-73
2021/09/02 07:18:04;;;;;;;0.00;0.00;;;;;;;;;;5009194;28;20220;-73
2021/09/02 07:20:32;;;;;;;0.00;0.00;;;;;;;;;;5010443;28;20234;-73
2021/09/02 07:22:59;;;;;;;0.00;0.00;;;;;;;;;;5009145;28;20223;-76
2021/09/02 07:25:27;;;;;;;0.00;0.00;;;;;;;;;;5012900;28;21651;-74
2021/09/02 07:27:55;;;;;;;0.00;0.00;;;;;;;;;;5013591;28;20197;-75
2021/09/02 07:30:23;;;;;;;0.00;0.00;;;;;;;;;;5002825;28;20224;-75
2021/09/02 07:32:50;;;;;;;0.00;0.00;;;;;;;;;;5004067;28;20205;-74
2021/09/02 07:35:17;;;;;;;0.00;0.00;;;;;;;;;;5003149;28;20200;-75
2021/09/02 07:37:45;;;;;;;0.00;0.00;;;;;;;;;;5004957;28;20212;-74
2021/09/02 07:40:12;;;;;;;0.00;0.00;;;;;;;;;;5006934;28;20196;-76
2021/09/02 07:42:40;;;;;;;0.00;0.00;;;;;;;;;;5001963;28;20208;-76
2021/09/02 07:45:09;;;;;;;0.00;0.00;;;;;;;;;;5007295;28;20208;-76
2021/09/02 07:47:37;;;;;;;0.00;0.00;;;;;;;;;;5008454;28;20212;-74
2021/09/02 07:50:05;;;;;;;0.00;0.00;;;;;;;;;;5011320;28;20343;-77
2021/09/02 07:52:34;;;;;;;1.07;1.07;;;;;;;;;;5003527;28;20294;-75
2021/09/02 07:55:01;;;;;;;0.07;0.07;;;;;;;;;;4999670;28;20842;-75
2021/09/02 07:57:29;;;;;;;0.00;0.00;;;;;;;;;;5001636;28;20274;-75
2021/09/02 07:59:56;;;;;;;0.00;0.00;;;;;;;;;;5003109;28;20237;-73
2021/09/02 08:02:25;;;;;;;0.00;0.00;;;;;;;;;;5001109;28;20251;-75
2021/09/02 08:04:52;;;;;;;0.00;0.00;;;;;;;;;;4998818;28;20739;-74
2021/09/02 08:07:20;;;;;;;0.00;0.00;;;;;;;;;;5009974;28;20204;-75
2021/09/02 08:09:47;;;;;;;0.00;0.00;;;;;;;;;;5009150;28;20208;-76
2021/09/02 08:12:15;;;;;;;0.00;0.00;;;;;;;;;;5015644;28;20200;-73
2021/09/02 08:14:42;;;;;;;1.17;0.60;;;;;;;;;;5009128;28;20197;-75
2021/09/02 08:17:09;;;;;;;0.00;0.00;;;;;;;;;;5013096;28;20212;-74
2021/09/02 08:19:38;;;;;;;0.63;0.63;;;;;;;;;;5010621;28;20215;-74
2021/09/02 08:22:05;;;;;;;0.10;0.10;;;;;;;;;;5003177;28;20242;-76
2021/09/02 08:24:33;;;;;;;0.00;0.00;;;;;;;;;;5003229;28;20218;-74
2021/09/02 08:27:00;;;;;;;0.10;0.10;;;;;;;;;;5008074;28;20243;-74
2021/09/02 08:29:28;;;;;;;0.00;0.00;;;;;;;;;;5009852;28;20587;-76
2021/09/02 08:31:55;;;;;;;0.37;0.33;;;;;;;;;;5011808;28;22416;-75
2021/09/02 08:34:22;;;;;;;0.10;0.10;;;;;;;;;;5009588;28;20196;-75
2021/09/02 08:36:51;;;;;;;0.00;0.00;;;;;;;;;;5008825;28;20201;-74
2021/09/02 08:39:19;;;;;;;0.00;0.00;;;;;;;;;;5012875;28;20201;-74
2021/09/02 08:41:46;;;;;;;0.00;0.00;;;;;;;;;;5010253;28;20216;-74
2021/09/02 08:44:14;;;;;;;0.00;0.00;;;;;;;;;;5012087;28;22183;-75
2021/09/02 08:46:42;;;;;;;0.00;0.00;;;;;;;;;;5010146;28;20208;-75
2021/09/02 08:49:09;;;;;;;0.23;0.23;;;;;;;;;;5012191;28;20219;-77
2021/09/02 08:51:36;;;;;;;0.57;0.10;;;;;;;;;;5010671;28;20200;-74
2021/09/02 08:54:06;;;;;;;0.50;0.50;;;;;;;;;;5008251;28;20288;-74
2021/09/02 08:56:33;;;;;;;0.00;0.00;;;;;;;;;;5010364;28;20597;-74
2021/09/02 08:59:01;;;;;;;0.33;0.13;;;;;;;;;;5011665;28;21759;-75
2021/09/02 09:01:28;;;;;;;0.00;0.00;;;;;;;;;;5009475;28;20255;-78
2021/09/02 09:03:55;;;;;;;0.00;0.00;;;;;;;;;;5009593;28;20220;-75
2021/09/02 09:06:24;;;;;;;0.23;0.23;;;;;;;;;;5011683;28;20211;-75
2021/09/02 09:08:52;;;;;;;0.00;0.00;;;;;;;;;;5010121;28;20697;-76
2021/09/02 09:11:22;;;;;;;0.20;0.20;;;;;;;;;;5013452;28;20212;-76
2021/09/02 09:13:49;;;;;;;0.00;0.00;;;;;;;;;;5010379;28;20204;-73
2021/09/02 09:16:17;;;;;;;0.43;0.37;;;;;;;;;;5012782;28;20242;-75
2021/09/02 09:18:46;;;;;;;0.20;0.20;;;;;;;;;;5009947;28;20208;-75
2021/09/02 09:21:15;;;;;;;0.95;0.45;;;;;;;;;;5013543;28;20234;-74
2021/09/02 09:23:52;;;;;;;0.00;0.00;;;;;;;;;;5009236;28;20204;-74
2021/09/02 09:26:21;;;;;;;0.00;0.00;;;;;;;;;;5010388;28;20222;-73
2021/09/02 09:28:49;;;;;;;0.03;0.03;;;;;;;;;;5011005;28;20208;-75
2021/09/02 09:31:26;;;;;;;0.00;0.00;;;;;;;;;;5011394;28;20203;-76
2021/09/02 09:33:54;;;;;;;0.00;0.00;;;;;;;;;;5011189;28;20926;-75
2021/09/02 09:36:22;;;;;;;0.00;0.00;;;;;;;;;;5008366;28;20200;-78
2021/09/02 09:39:00;;;;;;;1.27;0.45;;;;;;;;;;5010429;28;20203;-73
2021/09/02 09:44:28;;;;;;;0.00;0.00;;;;;;;;;;5018942;28;20231;-74
2021/09/02 09:47:09;;;;;;;0.07;0.07;;;;;;;;;;5022249;28;20584;-74
2021/09/02 09:49:43;;;;;;;0.00;0.00;;;;;;;;;;5024749;28;20200;-74
2021/09/02 09:52:28;;;;;;;0.00;0.00;;;;;;;;;;5021388;28;20196;-80
2021/09/02 09:55:02;;;;;;;0.53;0.30;;;;;;;;;;5023270;28;20204;-78
2021/09/02 09:57:32;;;;;;;0.00;0.00;;;;;;;;;;5025705;28;20817;-76
2021/09/02 10:00:02;;;;;;;0.00;0.00;;;;;;;;;;5021596;28;20228;-73
2021/09/02 10:02:30;;;;;;;0.00;0.00;;;;;;;;;;5022466;28;20305;-74
2021/09/02 10:04:58;;;;;;;0.00;0.00;;;;;;;;;;5025683;28;20208;-74
2021/09/02 10:07:25;;;;;;;0.00;0.00;;;;;;;;;;5028473;28;20212;-74
2021/09/02 10:09:54;;;;;;;0.10;0.10;;;;;;;;;;5024692;28;20205;-76
2021/09/02 10:12:23;;;;;;;0.00;0.00;;;;;;;;;;5027117;28;20330;-75
2021/09/02 10:14:52;;;;;;;0.97;0.50;;;;;;;;;;5025513;28;20192;-75
2021/09/02 10:17:19;;;;;;;0.20;0.20;;;;;;;;;;5023651;28;20254;-73
2021/09/02 10:19:47;;;;;;;0.10;0.10;;;;;;;;;;5023137;28;20217;-76
2021/09/02 10:22:15;;;;;;;0.43;0.43;;;;;;;;;;5024771;28;20735;-74
2021/09/02 10:24:43;;;;;;;0.00;0.00;;;;;;;;;;5025057;28;20281;-73
2021/09/02 10:27:29;;;;;;;0.20;0.20;;;;;;;;;;5023051;28;21888;-75
2021/09/02 10:29:58;;;;;;;0.00;0.00;;;;;;;;;;5010726;28;20216;-76
2021/09/02 10:32:31;;;;;;;0.00;0.00;;;;;;;;;;5011900;28;20200;-77
2021/09/02 10:35:29;;;;;;;1.07;1.07;;;;;;;;;;5010264;28;20225;-77
2021/09/02 10:37:56;;;;;;;0.03;0.03;;;;;;;;;;4966267;28;20216;-76
2021/09/02 10:40:42;;;;;;;1.53;0.40;;;;;;;;;;4994681;28;20634;-77
2021/09/02 10:43:09;;;;;;;0.30;0.30;;;;;;;;;;5001350;28;20237;-74
2021/09/02 10:45:38;;;;;;;0.70;0.70;;;;;;;;;;5006257;28;20786;-76
2021/09/02 10:48:08;;;;;;;0.00;0.00;;;;;;;;;;5012762;28;20211;-74
2021/09/02 10:50:38;;;;;;;0.32;0.30;;;;;;;;;;5015541;28;20199;-74
2021/09/02 10:53:09;;;;;;;0.00;0.00;;;;;;;;;;5010748;28;20211;-77
2021/09/02 10:55:37;;;;;;;0.00;0.00;;;;;;;;;;5012609;28;20205;-74
2021/09/02 10:58:05;;;;;;;0.00;0.00;;;;;;;;;;5009048;28;20274;-76
2021/09/02 11:00:36;;;;;;;0.00;0.00;;;;;;;;;;5013264;28;20207;-74
2021/09/02 11:03:18;;;;;;;0.00;0.00;;;;;;;;;;5009582;28;20232;-74
2021/09/02 11:05:46;;;;;;;0.00;0.00;;;;;;;;;;5012195;28;20220;-75
2021/09/02 11:08:13;;;;;;;0.20;0.10;;;;;;;;;;5012217;28;20214;-74
2021/09/02 11:10:41;;;;;;;1.02;0.52;;;;;;;;;;5002992;28;20205;-76
2021/09/02 11:13:11;;;;;;;0.00;0.00;;;;;;;;;;5003658;28;20205;-75
2021/09/02 11:15:39;;;;;;;0.10;0.10;;;;;;;;;;5001668;28;20218;-77
2021/09/02 11:18:07;;;;;;;0.52;0.52;;;;;;;;;;5002747;28;20216;-75
2021/09/02 11:20:36;;;;;;;0.20;0.20;;;;;;;;;;5006927;28;20218;-74
2021/09/02 11:23:11;;;;;;;0.00;0.00;;;;;;;;;;5001839;28;20240;-77
2021/09/02 11:25:42;;;;;;;0.28;0.28;;;;;;;;;;5005748;28;20219;-76
2021/09/02 11:28:10;;;;;;;1.38;0.45;;;;;;;;;;5006238;28;20305;-74
2021/09/02 11:30:37;;;;;;;1.17;0.95;;;;;;;;;;5002619;28;20208;-73
2021/09/02 11:33:07;;;;;;;0.10;0.10;;;;;;;;;;5009015;28;20207;-75
2021/09/02 11:35:36;;;;;;;0.25;0.25;;;;;;;;;;5008205;28;20244;-76
2021/09/02 11:38:04;;;;;;;0.20;0.20;;;;;;;;;;5010387;28;20205;-74
2021/09/02 11:40:33;;;;;;;0.20;0.20;;;;;;;;;;5012178;28;20219;-73
2021/09/02 11:43:01;;;;;;;0.47;0.47;;;;;;;;;;5013636;28;20235;-73
2021/09/02 11:45:30;;;;;;;0.00;0.00;;;;;;;;;;5004129;28;20232;-75
2021/09/02 11:48:03;;;;;;;0.43;0.43;;;;;;;;;;5003770;28;20236;-73
2021/09/02 11:50:30;;;;;;;0.00;0.00;;;;;;;;;;5000984;28;20204;-74
2021/09/02 11:52:59;;;;;;;0.20;0.15;;;;;;;;;;5003334;28;20214;-75
2021/09/02 11:55:28;;;;;;;0.10;0.10;;;;;;;;;;5001496;28;20258;-76
2021/09/02 11:57:56;;;;;;;0.50;0.50;;;;;;;;;;5002209;28;20216;-74
2021/09/02 12:00:24;;;;;;;0.47;0.47;;;;;;;;;;5002945;28;20215;-75
2021/09/02 12:02:51;;;;;;;1.48;1.38;;;;;;;;;;5001944;28;20235;-75
2021/09/02 12:05:23;;;;;;;0.15;0.15;;;;;;;;;;5001021;28;20208;-75
2021/09/02 12:07:52;;;;;;;0.43;0.43;;;;;;;;;;5002250;28;20200;-75
2021/09/02 12:10:22;;;;;;;0.00;0.00;;;;;;;;;;5001901;28;20251;-75
2021/09/02 12:12:49;;;;;;;0.00;0.00;;;;;;;;;;5001774;28;20212;-73
2021/09/02 12:15:24;;;;;;;1.75;0.68;;;;;;;;;;5002614;28;20758;-74
2021/09/02 12:18:05;;;;;;;0.00;0.00;;;;;;;;;;5002597;28;20239;-72
2021/09/02 12:20:32;;;;;;;0.32;0.15;;;;;;;;;;5001461;28;20208;-73
2021/09/02 12:23:00;;;;;;;0.00;0.00;;;;;;;;;;5008899;28;20235;-73
2021/09/02 12:25:28;;;;;;;0.80;0.80;;;;;;;;;;5008019;28;20212;-75
2021/09/02 12:27:56;;;;;;;0.13;0.13;;;;;;;;;;5009201;28;20227;-74
2021/09/02 12:30:42;;;;;;;0.77;0.60;;;;;;;;;;5003385;28;20209;-74
2021/09/02 12:33:10;;;;;;;0.00;0.00;;;;;;;;;;5003934;28;20197;-73
2021/09/02 12:35:40;;;;;;;0.00;0.00;;;;;;;;;;5004561;28;20575;-73
2021/09/02 12:38:08;;;;;;;0.68;0.68;;;;;;;;;;5000575;28;20219;-73
2021/09/02 12:40:36;;;;;;;1.25;0.82;;;;;;;;;;5002123;28;20686;-73
2021/09/02 12:43:21;;;;;;;0.00;0.00;;;;;;;;;;5004189;28;20227;-73
2021/09/02 12:45:58;;;;;;;0.00;0.00;;;;;;;;;;5002901;28;20221;-74
2021/09/02 12:48:25;;;;;;;0.63;0.63;;;;;;;;;;5001439;28;20685;-73
2021/09/02 12:50:54;;;;;;;0.47;0.47;;;;;;;;;;5001595;28;20325;-73
2021/09/02 12:53:21;;;;;;;3.20;0.57;;;;;;;;;;5001116;28;20804;-75
2021/09/02 12:55:50;;;;;;;0.70;0.35;;;;;;;;;;5001970;28;20198;-74
2021/09/02 12:58:18;;;;;;;0.13;0.13;;;;;;;;;;5003900;28;20589;-74
2021/09/02 13:00:45;;;;;;;2.42;1.17;;;;;;;;;;5002919;28;20215;-74
2021/09/02 13:03:15;;;;;;;0.25;0.20;;;;;;;;;;5003680;28;20228;-74
2021/09/02 13:05:47;;;;;;;0.00;0.00;;;;;;;;;;5002745;28;20283;-76
2021/09/02 13:08:18;;;;;;;0.00;0.00;;;;;;;;;;5004268;28;20361;-74
2021/09/02 13:10:45;;;;;;;0.00;0.00;;;;;;;;;;5000190;28;20205;-74
2021/09/02 13:13:14;;;;;;;0.00;0.00;;;;;;;;;;5003758;28;20246;-74
2021/09/02 13:15:42;;;;;;;1.00;0.85;;;;;;;;;;5002137;28;20339;-74
2021/09/02 13:18:10;;;;;;;0.13;0.13;;;;;;;;;;4999448;28;20780;-76
2021/09/02 13:20:37;;;;;;;0.17;0.17;;;;;;;;;;5004556;28;20216;-76
2021/09/02 13:23:06;;;;;;;0.45;0.45;;;;;;;;;;4999578;28;20235;-76
2021/09/02 13:25:33;;;;;;;0.00;0.00;;;;;;;;;;5003790;28;22218;-75
2021/09/02 13:28:01;;;;;;;0.00;0.00;;;;;;;;;;5002843;28;20234;-78
2021/09/02 13:30:29;;;;;;;0.00;0.00;;;;;;;;;;5000229;28;20224;-73
2021/09/02 13:32:57;;;;;;;0.73;0.73;;;;;;;;;;5000647;28;20213;-75
2021/09/02 13:35:24;;;;;;;0.22;0.22;;;;;;;;;;5003605;28;20222;-73
2021/09/02 13:37:51;;;;;;;0.15;0.15;;;;;;;;;;5001492;28;20213;-73
2021/09/02 13:40:20;;;;;;;0.40;0.40;;;;;;;;;;5001211;28;20881;-73
2021/09/02 13:42:47;;;;;;;0.00;0.00;;;;;;;;;;5006023;28;20881;-74
2021/09/02 13:45:15;;;;;;;0.05;0.05;;;;;;;;;;5003269;28;20201;-73
2021/09/02 13:47:44;;;;;;;0.68;0.60;;;;;;;;;;5003741;28;20216;-77
2021/09/02 13:50:12;;;;;;;1.17;1.08;;;;;;;;;;5009957;28;20880;-71
2021/09/02 13:52:39;;;;;;;2.75;2.35;;;;;;;;;;5008037;28;20246;-72
2021/09/02 13:55:08;;;;;;;0.00;0.00;;;;;;;;;;5007828;28;20213;-75
2021/09/02 13:57:35;;;;;;;1.30;0.63;;;;;;;;;;5007236;28;20249;-75
2021/09/02 14:00:03;;;;;;;0.00;0.00;;;;;;;;;;5004649;28;20236;-76
2021/09/02 14:02:30;;;;;;;0.05;0.05;;;;;;;;;;5004857;28;20229;-73
2021/09/02 14:04:59;;;;;;;0.20;0.20;;;;;;;;;;5005288;28;20208;-73
2021/09/02 14:07:27;;;;;;;5.63;0.43;;;;;;;;;;5004511;28;20203;-73
2021/09/02 14:09:54;;;;;;;0.20;0.20;;;;;;;;;;5002238;28;20595;-74
2021/09/02 14:12:22;;;;;;;0.00;0.00;;;;;;;;;;5002823;28;20623;-77
2021/09/02 14:14:49;;;;;;;0.05;0.05;;;;;;;;;;5008478;28;20279;-76
2021/09/02 14:17:17;;;;;;;0.52;0.52;;;;;;;;;;5003204;28;20219;-74
2021/09/02 14:19:44;;;;;;;0.30;0.22;;;;;;;;;;5004571;28;20727;-74
2021/09/02 14:22:13;;;;;;;0.28;0.28;;;;;;;;;;5004200;28;20626;-75
2021/09/02 14:24:41;;;;;;;0.00;0.00;;;;;;;;;;5003218;28;20208;-74
2021/09/02 14:27:08;;;;;;;0.10;0.10;;;;;;;;;;5005495;28;20292;-75
2021/09/02 14:29:36;;;;;;;0.98;0.90;;;;;;;;;;5005727;28;20842;-74
2021/09/02 14:32:03;;;;;;;0.00;0.00;;;;;;;;;;5003058;28;20979;-73
2021/09/02 14:34:31;;;;;;;0.00;0.00;;;;;;;;;;5005393;28;20209;-73
2021/09/02 14:36:58;;;;;;;0.98;0.82;;;;;;;;;;5007587;28;20208;-76
2021/09/02 14:39:27;;;;;;;0.00;0.00;;;;;;;;;;5005548;28;20855;-74
2021/09/02 14:41:54;;;;;;;1.23;0.75;;;;;;;;;;5006585;28;20205;-74
2021/09/02 14:44:22;;;;;;;0.22;0.20;;;;;;;;;;5005904;28;20616;-75
2021/09/02 14:46:49;;;;;;;0.00;0.00;;;;;;;;;;5012034;28;20211;-73
2021/09/02 14:49:16;;;;;;;0.17;0.17;;;;;;;;;;5007911;28;20212;-73
2021/09/02 14:51:44;;;;;;;0.00;0.00;;;;;;;;;;5007219;28;20217;-73
2021/09/02 14:54:11;;;;;;;0.00;0.00;;;;;;;;;;5010580;28;20209;-73